ESNU/UME METAR and TAF weather

Enter ICAO airport designator
Station Type Date Time Source
ESNU METAR 2019/08/19 22:20 UTC NOAA

ESNU 192220Z 17005KT CAVOK 14/12 Q1004


Station Type Date Time Source
ESNU Decoded METAR 2019/08/19 22:20 UTC NOAA

Umea Flygplats, Sweden (ESNU) 63-48N 020-17E 14M
Aug 19, 2019 - 06:20 PM EDT / 2019.08.19 2220 UTC
Wind: from the S (170 degrees) at 6 MPH (5 KT):0
Visibility: greater than 7 mile(s):0
Temperature: 57 F (14 C)
Dew Point: 53 F (12 C)
Relative Humidity: 87%
Pressure (altimeter): 29.65 in. Hg (1004 hPa)
ob: ESNU 192220Z 17005KT CAVOK 14/12 Q1004
cycle: 22

Station Type Date Time Source
ESNU TAF 2019/01/04 00:39 UTC NOAA

TAF TAF ESNU 042330Z 0500/0524 34002KT CAVOK PROB40 0500/0503 BKN008

Example: see airport list